sensor_id;sensor_type;location;lat;lon;timestamp;pressure;altitude;pressure_sealevel;temperature;humidity
63903;BME280;50072;50.678;13.938;2022-07-24T00:01:18;99964.31;;;16.01;82.44
63903;BME280;50072;50.678;13.938;2022-07-24T00:06:20;99962.88;;;15.92;82.09
63903;BME280;50072;50.678;13.938;2022-07-24T00:08:48;99970.97;;;15.92;82.85
63903;BME280;50072;50.678;13.938;2022-07-24T00:11:16;99968.34;;;15.91;81.64
63903;BME280;50072;50.678;13.938;2022-07-24T00:13:49;99959.50;;;15.87;82.63
63903;BME280;50072;50.678;13.938;2022-07-24T00:16:18;99959.69;;;15.82;83.01
63903;BME280;50072;50.678;13.938;2022-07-24T00:18:46;99971.50;;;15.80;82.64
63903;BME280;50072;50.678;13.938;2022-07-24T00:21:18;99973.47;;;15.75;83.19
63903;BME280;50072;50.678;13.938;2022-07-24T00:23:48;99979.00;;;15.71;82.99
63903;BME280;50072;50.678;13.938;2022-07-24T00:26:14;99970.22;;;15.66;82.91
63903;BME280;50072;50.678;13.938;2022-07-24T00:28:48;99965.19;;;15.57;82.47
63903;BME280;50072;50.678;13.938;2022-07-24T00:31:18;99965.13;;;15.59;82.58
63903;BME280;50072;50.678;13.938;2022-07-24T00:33:50;99964.19;;;15.60;84.19
63903;BME280;50072;50.678;13.938;2022-07-24T00:36:18;99967.94;;;15.56;84.26
63903;BME280;50072;50.678;13.938;2022-07-24T00:38:48;99969.09;;;15.50;84.28
63903;BME280;50072;50.678;13.938;2022-07-24T00:41:19;99969.94;;;15.50;84.72
63903;BME280;50072;50.678;13.938;2022-07-24T00:44:14;99976.31;;;15.49;85.03
63903;BME280;50072;50.678;13.938;2022-07-24T00:46:48;99970.97;;;15.48;84.88
63903;BME280;50072;50.678;13.938;2022-07-24T00:49:20;99979.16;;;15.45;85.26
63903;BME280;50072;50.678;13.938;2022-07-24T00:51:51;99981.88;;;15.45;84.66
63903;BME280;50072;50.678;13.938;2022-07-24T00:54:20;99983.75;;;15.43;83.21
63903;BME280;50072;50.678;13.938;2022-07-24T00:56:49;99984.88;;;15.37;84.26
63903;BME280;50072;50.678;13.938;2022-07-24T00:59:18;99982.38;;;15.32;84.31
63903;BME280;50072;50.678;13.938;2022-07-24T01:01:48;99986.25;;;15.25;84.34
63903;BME280;50072;50.678;13.938;2022-07-24T01:04:20;99972.84;;;15.24;84.68
63903;BME280;50072;50.678;13.938;2022-07-24T01:06:48;99982.59;;;15.26;85.16
63903;BME280;50072;50.678;13.938;2022-07-24T01:09:20;99977.44;;;15.20;85.47
63903;BME280;50072;50.678;13.938;2022-07-24T01:11:46;99980.28;;;15.17;84.52
63903;BME280;50072;50.678;13.938;2022-07-24T01:14:14;99981.13;;;15.17;84.26
63903;BME280;50072;50.678;13.938;2022-07-24T01:16:40;99989.28;;;15.16;84.36
63903;BME280;50072;50.678;13.938;2022-07-24T01:19:18;99990.28;;;15.13;85.10
63903;BME280;50072;50.678;13.938;2022-07-24T01:21:49;99995.88;;;15.09;85.80
63903;BME280;50072;50.678;13.938;2022-07-24T01:24:19;99987.13;;;15.02;84.98
63903;BME280;50072;50.678;13.938;2022-07-24T01:26:48;99990.59;;;15.06;85.51
63903;BME280;50072;50.678;13.938;2022-07-24T01:29:15;99990.66;;;15.04;85.84
63903;BME280;50072;50.678;13.938;2022-07-24T01:31:48;99986.13;;;15.05;86.04
63903;BME280;50072;50.678;13.938;2022-07-24T01:34:14;99998.16;;;14.96;86.17
63903;BME280;50072;50.678;13.938;2022-07-24T01:36:45;99994.00;;;14.87;86.73
63903;BME280;50072;50.678;13.938;2022-07-24T01:39:18;99994.78;;;14.89;86.81
63903;BME280;50072;50.678;13.938;2022-07-24T01:41:48;99997.56;;;14.88;87.00
63903;BME280;50072;50.678;13.938;2022-07-24T01:44:15;100003.84;;;14.88;87.90
63903;BME280;50072;50.678;13.938;2022-07-24T01:46:48;99993.44;;;14.77;86.72
63903;BME280;50072;50.678;13.938;2022-07-24T01:49:18;99996.25;;;14.74;86.24
63903;BME280;50072;50.678;13.938;2022-07-24T01:51:46;99996.44;;;14.70;86.12
63903;BME280;50072;50.678;13.938;2022-07-24T01:54:18;99993.88;;;14.65;86.21
63903;BME280;50072;50.678;13.938;2022-07-24T01:56:49;100001.00;;;14.67;86.51
63903;BME280;50072;50.678;13.938;2022-07-24T01:59:16;99996.50;;;14.68;86.53
63903;BME280;50072;50.678;13.938;2022-07-24T02:01:48;100001.88;;;14.68;86.25
63903;BME280;50072;50.678;13.938;2022-07-24T02:04:20;100006.25;;;14.71;87.40
63903;BME280;50072;50.678;13.938;2022-07-24T02:06:46;100019.03;;;14.65;87.54
63903;BME280;50072;50.678;13.938;2022-07-24T02:09:18;100003.88;;;14.61;87.72
63903;BME280;50072;50.678;13.938;2022-07-24T02:11:49;100016.41;;;14.64;87.13
63903;BME280;50072;50.678;13.938;2022-07-24T02:14:17;100004.94;;;14.57;87.45
63903;BME280;50072;50.678;13.938;2022-07-24T02:16:48;100002.19;;;14.59;88.24
63903;BME280;50072;50.678;13.938;2022-07-24T02:19:20;100014.66;;;14.61;87.43
63903;BME280;50072;50.678;13.938;2022-07-24T02:21:47;100008.47;;;14.59;87.75
63903;BME280;50072;50.678;13.938;2022-07-24T02:24:18;100002.53;;;14.49;87.45
63903;BME280;50072;50.678;13.938;2022-07-24T02:26:50;100008.78;;;14.50;87.37
63903;BME280;50072;50.678;13.938;2022-07-24T02:29:17;100010.53;;;14.51;87.71
63903;BME280;50072;50.678;13.938;2022-07-24T02:31:48;100014.09;;;14.52;86.62
63903;BME280;50072;50.678;13.938;2022-07-24T02:34:19;100009.75;;;14.47;87.65
63903;BME280;50072;50.678;13.938;2022-07-24T02:36:47;100010.97;;;14.39;86.94
63903;BME280;50072;50.678;13.938;2022-07-24T02:39:18;100022.78;;;14.35;86.81
63903;BME280;50072;50.678;13.938;2022-07-24T02:41:49;100018.53;;;14.27;87.61
63903;BME280;50072;50.678;13.938;2022-07-24T02:44:18;100019.38;;;14.29;87.09
63903;BME280;50072;50.678;13.938;2022-07-24T02:46:49;100026.50;;;14.30;88.21
63903;BME280;50072;50.678;13.938;2022-07-24T02:49:18;100022.09;;;14.29;87.73
63903;BME280;50072;50.678;13.938;2022-07-24T02:51:48;100022.16;;;14.26;88.50
63903;BME280;50072;50.678;13.938;2022-07-24T02:54:19;100018.75;;;14.21;87.07
63903;BME280;50072;50.678;13.938;2022-07-24T02:56:51;100026.91;;;14.20;86.99
63903;BME280;50072;50.678;13.938;2022-07-24T02:59:18;100039.63;;;14.14;86.85
63903;BME280;50072;50.678;13.938;2022-07-24T03:01:49;100042.31;;;14.14;87.48
63903;BME280;50072;50.678;13.938;2022-07-24T03:04:21;100031.53;;;14.14;88.54
63903;BME280;50072;50.678;13.938;2022-07-24T03:06:48;100039.72;;;14.11;87.29
63903;BME280;50072;50.678;13.938;2022-07-24T03:09:19;100039.03;;;14.05;86.74
63903;BME280;50072;50.678;13.938;2022-07-24T03:11:45;100040.19;;;13.97;86.08
63903;BME280;50072;50.678;13.938;2022-07-24T03:14:18;100039.47;;;13.92;87.40
63903;BME280;50072;50.678;13.938;2022-07-24T03:16:44;100044.94;;;13.89;86.27
63903;BME280;50072;50.678;13.938;2022-07-24T03:19:18;100034.16;;;13.89;86.91
63903;BME280;50072;50.678;13.938;2022-07-24T03:21:48;100039.66;;;13.86;87.54
63903;BME280;50072;50.678;13.938;2022-07-24T03:24:20;100037.06;;;13.83;87.82
63903;BME280;50072;50.678;13.938;2022-07-24T03:26:48;100045.13;;;13.83;87.45
63903;BME280;50072;50.678;13.938;2022-07-24T03:29:18;100047.13;;;13.76;88.08
63903;BME280;50072;50.678;13.938;2022-07-24T03:31:50;100051.66;;;13.76;88.16
63903;BME280;50072;50.678;13.938;2022-07-24T03:34:18;100038.25;;;13.74;88.53
63903;BME280;50072;50.678;13.938;2022-07-24T03:36:49;100042.56;;;13.80;88.08
63903;BME280;50072;50.678;13.938;2022-07-24T03:39:18;100053.31;;;13.80;87.32
63903;BME280;50072;50.678;13.938;2022-07-24T03:41:45;100050.53;;;13.83;87.86
63903;BME280;50072;50.678;13.938;2022-07-24T03:44:10;100057.56;;;13.87;88.18
63903;BME280;50072;50.678;13.938;2022-07-24T03:46:42;100054.13;;;13.82;86.89
63903;BME280;50072;50.678;13.938;2022-07-24T03:49:18;100050.63;;;13.80;87.47
63903;BME280;50072;50.678;13.938;2022-07-24T03:51:49;100057.84;;;13.78;87.24
63903;BME280;50072;50.678;13.938;2022-07-24T03:54:18;100058.81;;;13.77;87.57
63903;BME280;50072;50.678;13.938;2022-07-24T03:56:44;100068.56;;;13.79;87.74
63903;BME280;50072;50.678;13.938;2022-07-24T03:59:18;100056.97;;;13.77;88.13
63903;BME280;50072;50.678;13.938;2022-07-24T04:01:50;100059.50;;;13.82;87.89
63903;BME280;50072;50.678;13.938;2022-07-24T04:04:18;100064.78;;;13.85;87.67
63903;BME280;50072;50.678;13.938;2022-07-24T04:06:43;100062.09;;;13.85;87.24
63903;BME280;50072;50.678;13.938;2022-07-24T04:09:10;100075.38;;;13.91;87.75
63903;BME280;50072;50.678;13.938;2022-07-24T04:11:48;100059.13;;;13.94;87.84
63903;BME280;50072;50.678;13.938;2022-07-24T04:14:15;100054.66;;;13.93;87.47
63903;BME280;50072;50.678;13.938;2022-07-24T04:16:48;100056.00;;;13.80;87.33
63903;BME280;50072;50.678;13.938;2022-07-24T04:19:20;100058.84;;;13.75;87.77
63903;BME280;50072;50.678;13.938;2022-07-24T04:21:48;100068.53;;;13.81;88.75
63903;BME280;50072;50.678;13.938;2022-07-24T04:24:18;100059.41;;;13.85;88.56
63903;BME280;50072;50.678;13.938;2022-07-24T04:26:50;100061.13;;;13.88;88.80
63903;BME280;50072;50.678;13.938;2022-07-24T04:29:18;100068.13;;;13.93;89.21
63903;BME280;50072;50.678;13.938;2022-07-24T04:31:48;100058.16;;;13.97;88.58
63903;BME280;50072;50.678;13.938;2022-07-24T04:34:19;100058.81;;;14.04;88.70
63903;BME280;50072;50.678;13.938;2022-07-24T04:36:48;100059.66;;;14.06;88.87
63903;BME280;50072;50.678;13.938;2022-07-24T04:39:18;100060.28;;;14.14;89.28
63903;BME280;50072;50.678;13.938;2022-07-24T04:41:49;100054.56;;;14.23;88.95
63903;BME280;50072;50.678;13.938;2022-07-24T04:44:18;100059.78;;;14.29;88.49
63903;BME280;50072;50.678;13.938;2022-07-24T04:46:48;100057.66;;;14.38;88.71
63903;BME280;50072;50.678;13.938;2022-07-24T04:49:19;100053.06;;;14.41;88.41
63903;BME280;50072;50.678;13.938;2022-07-24T04:51:48;100059.88;;;14.52;86.94
63903;BME280;50072;50.678;13.938;2022-07-24T04:54:18;100058.78;;;14.57;87.48
63903;BME280;50072;50.678;13.938;2022-07-24T04:56:48;100064.84;;;14.65;87.43
63903;BME280;50072;50.678;13.938;2022-07-24T04:59:21;100054.75;;;14.71;87.18
63903;BME280;50072;50.678;13.938;2022-07-24T05:01:48;100060.06;;;14.74;86.27
63903;BME280;50072;50.678;13.938;2022-07-24T05:04:18;100056.31;;;14.78;86.02
63903;BME280;50072;50.678;13.938;2022-07-24T05:06:48;100065.22;;;14.80;85.51
63903;BME280;50072;50.678;13.938;2022-07-24T05:09:18;100067.69;;;14.86;85.30
63903;BME280;50072;50.678;13.938;2022-07-24T05:11:48;100068.28;;;14.94;85.32
63903;BME280;50072;50.678;13.938;2022-07-24T05:14:17;100070.69;;;15.02;85.73
63903;BME280;50072;50.678;13.938;2022-07-24T05:16:49;100065.94;;;15.09;86.18
63903;BME280;50072;50.678;13.938;2022-07-24T05:19:18;100066.66;;;15.14;86.27
63903;BME280;50072;50.678;13.938;2022-07-24T05:21:50;100068.06;;;15.24;86.05
63903;BME280;50072;50.678;13.938;2022-07-24T05:24:18;100074.13;;;15.31;86.28
63903;BME280;50072;50.678;13.938;2022-07-24T05:26:49;100072.16;;;15.34;86.13
63903;BME280;50072;50.678;13.938;2022-07-24T05:29:18;100080.84;;;15.43;85.90
63903;BME280;50072;50.678;13.938;2022-07-24T05:31:43;100077.91;;;15.49;86.31
63903;BME280;50072;50.678;13.938;2022-07-24T05:34:10;100073.94;;;15.59;86.10
63903;BME280;50072;50.678;13.938;2022-07-24T05:36:40;100064.72;;;15.65;86.88
63903;BME280;50072;50.678;13.938;2022-07-24T05:39:11;100073.28;;;15.76;86.68
63903;BME280;50072;50.678;13.938;2022-07-24T05:41:48;100077.44;;;15.85;86.12
63903;BME280;50072;50.678;13.938;2022-07-24T05:44:19;100071.03;;;15.87;84.82
63903;BME280;50072;50.678;13.938;2022-07-24T05:46:48;100073.38;;;15.97;84.88
63903;BME280;50072;50.678;13.938;2022-07-24T05:49:18;100076.69;;;16.03;84.46
63903;BME280;50072;50.678;13.938;2022-07-24T05:51:48;100061.22;;;16.07;83.53
63903;BME280;50072;50.678;13.938;2022-07-24T05:54:18;100063.50;;;16.18;82.26
63903;BME280;50072;50.678;13.938;2022-07-24T05:59:19;100067.50;;;16.30;81.00
63903;BME280;50072;50.678;13.938;2022-07-24T06:01:50;100061.97;;;16.33;79.74
63903;BME280;50072;50.678;13.938;2022-07-24T06:04:18;100054.47;;;16.39;80.15
63903;BME280;50072;50.678;13.938;2022-07-24T06:06:48;100071.38;;;16.45;79.61
63903;BME280;50072;50.678;13.938;2022-07-24T06:09:17;100067.47;;;16.52;78.58
63903;BME280;50072;50.678;13.938;2022-07-24T06:11:48;100068.97;;;16.59;78.85
63903;BME280;50072;50.678;13.938;2022-07-24T06:14:18;100063.41;;;16.62;79.00
63903;BME280;50072;50.678;13.938;2022-07-24T06:16:48;100063.88;;;16.72;79.26
63903;BME280;50072;50.678;13.938;2022-07-24T06:19:19;100068.00;;;16.81;77.84
63903;BME280;50072;50.678;13.938;2022-07-24T06:21:51;100073.91;;;16.90;78.08
63903;BME280;50072;50.678;13.938;2022-07-24T06:24:18;100069.09;;;16.97;77.12
63903;BME280;50072;50.678;13.938;2022-07-24T06:26:50;100068.84;;;17.03;76.56
63903;BME280;50072;50.678;13.938;2022-07-24T06:29:18;100054.94;;;17.11;75.88
63903;BME280;50072;50.678;13.938;2022-07-24T06:31:48;100055.56;;;17.18;75.79
63903;BME280;50072;50.678;13.938;2022-07-24T06:34:18;100055.94;;;17.29;75.11
63903;BME280;50072;50.678;13.938;2022-07-24T06:36:48;100068.16;;;17.38;73.55
63903;BME280;50072;50.678;13.938;2022-07-24T06:39:18;100060.47;;;17.48;73.77
63903;BME280;50072;50.678;13.938;2022-07-24T06:41:48;100060.19;;;17.54;73.44
63903;BME280;50072;50.678;13.938;2022-07-24T06:44:14;100058.06;;;17.60;73.83
63903;BME280;50072;50.678;13.938;2022-07-24T06:46:41;100048.78;;;17.66;73.37
63903;BME280;50072;50.678;13.938;2022-07-24T06:49:06;100047.44;;;17.75;72.21
63903;BME280;50072;50.678;13.938;2022-07-24T06:51:32;100058.69;;;17.85;71.90
63903;BME280;50072;50.678;13.938;2022-07-24T06:53:58;100055.72;;;17.91;71.80
63903;BME280;50072;50.678;13.938;2022-07-24T06:56:24;100052.72;;;17.97;72.04
63903;BME280;50072;50.678;13.938;2022-07-24T06:58:50;100057.66;;;18.06;72.42
63903;BME280;50072;50.678;13.938;2022-07-24T07:01:16;100047.34;;;18.15;71.54
63903;BME280;50072;50.678;13.938;2022-07-24T07:03:42;100051.25;;;18.26;70.96
63903;BME280;50072;50.678;13.938;2022-07-24T07:06:08;100043.59;;;18.35;69.71
63903;BME280;50072;50.678;13.938;2022-07-24T07:08:34;100046.47;;;18.49;68.41
63903;BME280;50072;50.678;13.938;2022-07-24T07:11:00;100041.28;;;18.62;67.92
63903;BME280;50072;50.678;13.938;2022-07-24T07:13:26;100047.81;;;18.75;65.09
63903;BME280;50072;50.678;13.938;2022-07-24T07:15:52;100045.34;;;18.88;65.06
63903;BME280;50072;50.678;13.938;2022-07-24T07:18:18;100050.13;;;19.01;66.48
63903;BME280;50072;50.678;13.938;2022-07-24T07:20:45;100051.16;;;19.16;66.16
63903;BME280;50072;50.678;13.938;2022-07-24T07:23:11;100043.13;;;19.30;65.92
63903;BME280;50072;50.678;13.938;2022-07-24T07:25:36;100042.28;;;19.45;61.77
63903;BME280;50072;50.678;13.938;2022-07-24T07:28:03;100042.38;;;19.60;59.45
63903;BME280;50072;50.678;13.938;2022-07-24T07:30:29;100043.41;;;19.73;59.45
63903;BME280;50072;50.678;13.938;2022-07-24T07:32:56;100040.03;;;19.86;59.54
63903;BME280;50072;50.678;13.938;2022-07-24T07:35:22;100044.38;;;20.04;59.51
63903;BME280;50072;50.678;13.938;2022-07-24T07:37:49;100045.13;;;20.22;57.27
63903;BME280;50072;50.678;13.938;2022-07-24T07:40:15;100039.59;;;20.40;57.16
63903;BME280;50072;50.678;13.938;2022-07-24T07:42:41;100050.22;;;20.59;55.23
63903;BME280;50072;50.678;13.938;2022-07-24T07:45:07;100045.78;;;20.72;52.88
63903;BME280;50072;50.678;13.938;2022-07-24T07:47:35;100038.34;;;20.90;53.81
63903;BME280;50072;50.678;13.938;2022-07-24T07:50:04;100040.81;;;21.09;53.49
63903;BME280;50072;50.678;13.938;2022-07-24T07:52:30;100035.94;;;21.29;51.38
63903;BME280;50072;50.678;13.938;2022-07-24T07:54:56;100045.25;;;21.39;49.90
63903;BME280;50072;50.678;13.938;2022-07-24T07:57:24;100046.13;;;21.68;51.83
63903;BME280;50072;50.678;13.938;2022-07-24T07:59:49;100037.28;;;21.79;49.66
63903;BME280;50072;50.678;13.938;2022-07-24T08:02:15;100039.31;;;22.03;49.98
63903;BME280;50072;50.678;13.938;2022-07-24T08:04:42;100030.25;;;22.30;49.75
63903;BME280;50072;50.678;13.938;2022-07-24T08:07:08;100036.38;;;22.61;48.50
63903;BME280;50072;50.678;13.938;2022-07-24T08:09:33;100034.75;;;22.84;48.07
63903;BME280;50072;50.678;13.938;2022-07-24T08:12:00;100032.84;;;23.12;48.33
63903;BME280;50072;50.678;13.938;2022-07-24T08:14:26;100037.16;;;23.27;44.92
63903;BME280;50072;50.678;13.938;2022-07-24T08:16:51;100033.19;;;23.57;47.09
63903;BME280;50072;50.678;13.938;2022-07-24T08:19:18;100022.28;;;23.94;47.75
63903;BME280;50072;50.678;13.938;2022-07-24T08:21:44;100016.97;;;24.28;46.97
63903;BME280;50072;50.678;13.938;2022-07-24T08:24:12;100019.88;;;24.62;45.72
63903;BME280;50072;50.678;13.938;2022-07-24T08:26:38;100024.53;;;24.84;43.35
63903;BME280;50072;50.678;13.938;2022-07-24T08:29:04;100023.44;;;25.09;45.56
63903;BME280;50072;50.678;13.938;2022-07-24T08:31:32;100028.09;;;25.31;44.17
63903;BME280;50072;50.678;13.938;2022-07-24T08:33:58;100017.88;;;25.33;42.71
63903;BME280;50072;50.678;13.938;2022-07-24T08:36:24;100017.94;;;25.77;43.64
63903;BME280;50072;50.678;13.938;2022-07-24T08:38:51;100011.69;;;26.30;43.29
63903;BME280;50072;50.678;13.938;2022-07-24T08:41:18;100005.94;;;26.87;43.17
63903;BME280;50072;50.678;13.938;2022-07-24T08:43:44;100003.84;;;27.31;40.96
63903;BME280;50072;50.678;13.938;2022-07-24T08:46:10;100002.41;;;27.68;40.52
63903;BME280;50072;50.678;13.938;2022-07-24T08:48:43;100004.94;;;28.10;37.97
63903;BME280;50072;50.678;13.938;2022-07-24T08:51:13;100004.66;;;28.52;39.43
63903;BME280;50072;50.678;13.938;2022-07-24T08:53:41;99995.94;;;28.96;39.77
63903;BME280;50072;50.678;13.938;2022-07-24T08:56:30;99995.59;;;29.47;37.97
63903;BME280;50072;50.678;13.938;2022-07-24T08:58:59;99995.28;;;29.87;35.87
63903;BME280;50072;50.678;13.938;2022-07-24T09:01:27;99989.13;;;29.93;35.43
63903;BME280;50072;50.678;13.938;2022-07-24T09:03:53;99990.47;;;30.07;35.95
63903;BME280;50072;50.678;13.938;2022-07-24T09:06:18;99988.41;;;30.45;35.98
63903;BME280;50072;50.678;13.938;2022-07-24T09:09:02;99978.34;;;30.80;33.37
63903;BME280;50072;50.678;13.938;2022-07-24T09:11:35;99980.16;;;31.16;33.15
63903;BME280;50072;50.678;13.938;2022-07-24T09:14:02;99984.25;;;31.46;34.39
63903;BME280;50072;50.678;13.938;2022-07-24T09:17:04;99978.38;;;31.92;31.08
63903;BME280;50072;50.678;13.938;2022-07-24T09:19:31;99979.84;;;32.29;32.36
63903;BME280;50072;50.678;13.938;2022-07-24T09:21:59;99986.97;;;32.57;30.84
63903;BME280;50072;50.678;13.938;2022-07-24T09:24:24;99981.97;;;32.68;30.33
63903;BME280;50072;50.678;13.938;2022-07-24T09:26:54;99983.78;;;32.10;30.41
63903;BME280;50072;50.678;13.938;2022-07-24T09:29:23;99976.03;;;32.14;30.40
63903;BME280;50072;50.678;13.938;2022-07-24T09:32:00;99976.25;;;32.78;31.06
63903;BME280;50072;50.678;13.938;2022-07-24T09:34:28;99966.09;;;33.10;31.06
63903;BME280;50072;50.678;13.938;2022-07-24T09:37:02;99969.13;;;33.48;30.30
63903;BME280;50072;50.678;13.938;2022-07-24T09:39:31;99959.41;;;33.84;29.63
63903;BME280;50072;50.678;13.938;2022-07-24T09:42:01;99953.50;;;34.10;28.75
63903;BME280;50072;50.678;13.938;2022-07-24T09:44:29;99959.66;;;34.29;28.82
63903;BME280;50072;50.678;13.938;2022-07-24T09:47:06;99955.22;;;34.57;28.30
63903;BME280;50072;50.678;13.938;2022-07-24T09:49:32;99961.94;;;35.01;28.27
63903;BME280;50072;50.678;13.938;2022-07-24T09:52:10;99963.13;;;35.37;26.83
63903;BME280;50072;50.678;13.938;2022-07-24T09:54:38;99954.47;;;35.47;25.99
63903;BME280;50072;50.678;13.938;2022-07-24T10:02:16;99958.19;;;36.05;25.00
63903;BME280;50072;50.678;13.938;2022-07-24T10:04:43;99957.69;;;35.80;26.16
63903;BME280;50072;50.678;13.938;2022-07-24T10:07:11;99952.03;;;35.73;24.72
63903;BME280;50072;50.678;13.938;2022-07-24T10:09:41;99955.03;;;35.12;24.60
63903;BME280;50072;50.678;13.938;2022-07-24T10:12:13;99948.34;;;35.36;25.02
63903;BME280;50072;50.678;13.938;2022-07-24T10:14:42;99955.84;;;34.68;24.82
63903;BME280;50072;50.678;13.938;2022-07-24T10:17:10;99949.28;;;35.43;25.41
63903;BME280;50072;50.678;13.938;2022-07-24T10:19:42;99931.09;;;34.73;24.70
63903;BME280;50072;50.678;13.938;2022-07-24T10:22:15;99940.44;;;35.10;25.47
63903;BME280;50072;50.678;13.938;2022-07-24T10:24:53;99946.19;;;35.83;23.60
63903;BME280;50072;50.678;13.938;2022-07-24T10:27:31;99932.09;;;35.10;23.48
63903;BME280;50072;50.678;13.938;2022-07-24T10:30:01;99933.09;;;35.32;24.94
63903;BME280;50072;50.678;13.938;2022-07-24T10:32:30;99943.94;;;36.15;23.75
63903;BME280;50072;50.678;13.938;2022-07-24T10:35:22;99936.22;;;35.96;22.36
63903;BME280;50072;50.678;13.938;2022-07-24T10:40:36;99935.69;;;37.07;22.67
63903;BME280;50072;50.678;13.938;2022-07-24T10:48:34;99926.72;;;38.55;22.24
63903;BME280;50072;50.678;13.938;2022-07-24T11:07:18;99909.41;;;39.84;19.93
63903;BME280;50072;50.678;13.938;2022-07-24T11:10:03;99909.53;;;40.02;18.57
63903;BME280;50072;50.678;13.938;2022-07-24T11:12:41;99900.72;;;40.24;18.76
63903;BME280;50072;50.678;13.938;2022-07-24T11:15:18;99902.50;;;40.44;18.41
63903;BME280;50072;50.678;13.938;2022-07-24T11:18:18;99903.19;;;40.39;18.75
63903;BME280;50072;50.678;13.938;2022-07-24T11:20:46;99892.16;;;39.80;17.19
63903;BME280;50072;50.678;13.938;2022-07-24T11:23:19;99898.25;;;40.34;16.99
63903;BME280;50072;50.678;13.938;2022-07-24T11:25:48;99893.19;;;40.50;18.84
63903;BME280;50072;50.678;13.938;2022-07-24T11:28:20;99904.22;;;40.95;17.43
63903;BME280;50072;50.678;13.938;2022-07-24T11:30:48;99896.03;;;41.31;16.52
63903;BME280;50072;50.678;13.938;2022-07-24T11:33:20;99888.94;;;41.47;16.81
63903;BME280;50072;50.678;13.938;2022-07-24T11:35:47;99895.44;;;41.78;17.86
63903;BME280;50072;50.678;13.938;2022-07-24T11:38:14;99887.16;;;42.25;17.46
63903;BME280;50072;50.678;13.938;2022-07-24T11:40:40;99892.19;;;42.35;16.16
63903;BME280;50072;50.678;13.938;2022-07-24T11:43:06;99879.72;;;42.42;15.50
63903;BME280;50072;50.678;13.938;2022-07-24T11:45:32;99878.88;;;42.42;15.85
63903;BME280;50072;50.678;13.938;2022-07-24T11:47:59;99885.81;;;41.85;15.33
63903;BME280;50072;50.678;13.938;2022-07-24T11:50:26;99887.06;;;41.40;15.44
63903;BME280;50072;50.678;13.938;2022-07-24T11:52:53;99875.28;;;41.81;15.58
63903;BME280;50072;50.678;13.938;2022-07-24T11:55:21;99878.03;;;41.99;14.94
63903;BME280;50072;50.678;13.938;2022-07-24T11:57:49;99871.25;;;42.19;15.19
63903;BME280;50072;50.678;13.938;2022-07-24T12:00:19;99871.38;;;42.24;15.21
63903;BME280;50072;50.678;13.938;2022-07-24T12:02:52;99872.13;;;42.31;15.17
63903;BME280;50072;50.678;13.938;2022-07-24T12:05:33;99871.25;;;42.19;14.32
63903;BME280;50072;50.678;13.938;2022-07-24T12:08:01;99878.44;;;42.15;13.97
63903;BME280;50072;50.678;13.938;2022-07-24T12:10:29;99878.34;;;42.21;15.27
63903;BME280;50072;50.678;13.938;2022-07-24T12:12:56;99868.94;;;40.81;14.40
63903;BME280;50072;50.678;13.938;2022-07-24T12:15:23;99854.41;;;40.91;14.90
63903;BME280;50072;50.678;13.938;2022-07-24T12:18:03;99852.56;;;41.33;14.16
63903;BME280;50072;50.678;13.938;2022-07-24T12:20:43;99848.94;;;40.96;15.41
63903;BME280;50072;50.678;13.938;2022-07-24T12:23:11;99847.53;;;39.85;15.41
63903;BME280;50072;50.678;13.938;2022-07-24T12:28:17;99837.41;;;39.46;14.83
63903;BME280;50072;50.678;13.938;2022-07-24T12:30:46;99837.66;;;39.38;15.85
63903;BME280;50072;50.678;13.938;2022-07-24T12:33:20;99838.38;;;39.65;15.84
63903;BME280;50072;50.678;13.938;2022-07-24T12:38:52;99834.53;;;39.59;14.80
63903;BME280;50072;50.678;13.938;2022-07-24T12:41:20;99820.63;;;39.78;15.87
63903;BME280;50072;50.678;13.938;2022-07-24T12:43:53;99822.94;;;40.38;16.07
63903;BME280;50072;50.678;13.938;2022-07-24T12:46:41;99820.34;;;40.80;14.76
63903;BME280;50072;50.678;13.938;2022-07-24T12:52:03;99826.41;;;41.33;13.69
63903;BME280;50072;50.678;13.938;2022-07-24T12:54:35;99812.13;;;41.04;13.57
63903;BME280;50072;50.678;13.938;2022-07-24T12:57:11;99812.59;;;41.01;13.94
63903;BME280;50072;50.678;13.938;2022-07-24T12:59:44;99818.53;;;40.93;14.04
63903;BME280;50072;50.678;13.938;2022-07-24T13:02:15;99802.97;;;41.09;14.33
63903;BME280;50072;50.678;13.938;2022-07-24T13:04:47;99804.69;;;41.10;14.74
63903;BME280;50072;50.678;13.938;2022-07-24T13:07:17;99811.19;;;40.92;13.91
63903;BME280;50072;50.678;13.938;2022-07-24T13:09:50;99803.13;;;40.58;14.78
63903;BME280;50072;50.678;13.938;2022-07-24T13:12:19;99782.78;;;40.81;14.83
63903;BME280;50072;50.678;13.938;2022-07-24T13:14:48;99794.78;;;40.70;14.51
63903;BME280;50072;50.678;13.938;2022-07-24T13:17:18;99795.97;;;41.18;14.73
63903;BME280;50072;50.678;13.938;2022-07-24T13:19:50;99790.19;;;41.73;14.08
63903;BME280;50072;50.678;13.938;2022-07-24T13:22:18;99799.78;;;40.49;15.42
63903;BME280;50072;50.678;13.938;2022-07-24T13:24:50;99803.94;;;40.40;15.78
63903;BME280;50072;50.678;13.938;2022-07-24T13:27:18;99794.50;;;40.97;13.93
63903;BME280;50072;50.678;13.938;2022-07-24T13:29:50;99790.13;;;41.50;15.06
63903;BME280;50072;50.678;13.938;2022-07-24T13:32:18;99786.94;;;41.77;14.05
63903;BME280;50072;50.678;13.938;2022-07-24T13:34:47;99783.03;;;42.01;14.16
63903;BME280;50072;50.678;13.938;2022-07-24T13:37:14;99775.47;;;42.02;14.44
63903;BME280;50072;50.678;13.938;2022-07-24T13:39:40;99784.50;;;41.92;13.16
63903;BME280;50072;50.678;13.938;2022-07-24T13:42:08;99773.47;;;41.79;13.66